Latest Weather Observations for Nhill Aerodrome

IDV60801

Issued at 9:02 am EST Friday 3 July 2015 (issued every 30 minutes, with the page automatically refreshed every 10 minutes)

About weather observations | Map of weather stations | Latest weather observations for VIC | Other Formats
Station Details ID: 078015 Name: NHILL AERODROME Lat: -36.31 Lon: 141.65 Height: 138.9 m
Data from the previous 72 hours. | See also: Recent months at Nhill Aerodrome
Date/Time
EST
Temp
°C
App
Temp
°C
Dew
Point
Rel
Hum
%
Delta-T
°C
Wind Press
QNH
hPa
Press
MSL
hPa
Rain
since 9 am
mm
Dir
 
Spd
km/h
Gust
km/h
Spd
kts
Gust
kts
03/09:00am -0.2 -2.2 -0.2 100 0.0 CALM 0 0 0 0 1029.6 1029.8 0.0
03/08:30am -0.7 -2.8 -0.7 100 0.0 CALM 0 0 0 0 1029.7 1029.9 0.0
03/08:00am -1.2 -3.7 -1.2 100 0.0 ESE 2 7 1 4 1029.5 1029.7 0.0
03/07:30am -2.0 -4.3 -2.1 99 -0.1 CALM 0 0 0 0 1029.6 1029.8 0.0
03/07:00am -1.7 -3.9 -1.8 99 0.0 CALM 0 0 0 0 1029.5 1029.7 0.0
03/06:30am -1.9 -4.2 -2.0 99 -0.1 CALM 0 0 0 0 1029.5 1029.7 0.0
03/06:00am -0.7 -2.8 -0.7 100 0.0 CALM 0 0 0 0 1028.9 1029.1 0.0
03/05:30am -0.5 -2.6 -0.5 100 0.0 CALM 0 0 0 0 1028.8 1029.0 0.0
03/05:00am -0.7 -2.8 -0.8 99 0.0 CALM 0 0 0 0 1028.8 1029.0 0.0
03/04:30am -0.6 -2.7 -0.7 99 0.0 CALM 0 0 0 0 1029.2 1029.4 0.0
03/04:00am -0.7 -2.8 -0.8 99 0.0 CALM 0 0 0 0 1029.2 1029.4 0.0
03/03:30am -0.2 -2.2 -0.3 99 0.0 CALM 0 0 0 0 1029.2 1029.4 0.0
03/03:00am 0.0 -2.0 -0.1 99 0.0 CALM 0 0 0 0 1029.3 1029.5 0.0
03/02:30am 0.0 -2.0 -0.1 99 0.0 CALM 0 0 0 0 1029.6 1029.8 0.0
03/02:00am 0.5 -1.4 0.4 99 0.0 CALM 0 0 0 0 1029.6 1029.8 0.0
03/01:30am 0.9 -1.0 0.8 99 0.0 CALM 0 0 0 0 1029.6 1029.8 0.0
03/01:00am 0.7 -1.2 0.6 99 0.0 CALM 0 0 0 0 1029.7 1029.9 0.0
03/12:30am 1.3 -0.5 1.0 98 0.1 CALM 0 0 0 0 1029.7 1029.9 0.0
03/12:00am 1.8 -0.7 1.5 98 0.1 SSE 4 6 2 3 1029.9 1030.1 0.0
 
Date/Time
EST
Temp
°C
App
Temp
°C
Dew
Point
Rel
Hum
%
Delta-T
°C
Wind Press
QNH
hPa
Press
MSL
hPa
Rain
since 9 am
mm
Dir
 
Spd
km/h
Gust
km/h
Spd
kts
Gust
kts
02/11:30pm 1.2 -1.8 0.8 97 0.1 SSE 6 7 3 4 1029.9 1030.1 0.0
02/11:00pm 1.5 -2.1 0.8 95 0.3 SSE 9 11 5 6 1030.0 1030.2 0.0
02/10:30pm 2.4 -1.5 1.4 93 0.4 SSE 11 15 6 8 1029.9 1030.1 0.0
02/10:00pm 3.5 -0.7 1.4 86 0.8 SE 13 15 7 8 1029.8 1030.0 0.0
02/09:30pm 3.8 -0.2 0.7 80 1.2 SE 11 11 6 6 1029.9 1030.1 0.0
02/09:00pm 4.6 1.4 0.6 75 1.5 SSE 7 9 4 5 1029.9 1030.1 0.0
02/08:30pm 4.8 1.2 0.8 75 1.6 SSE 9 11 5 6 1029.8 1030.0 0.0
02/08:00pm 5.5 1.8 0.1 68 2.1 SSE 9 11 5 6 1029.9 1030.1 0.0
02/07:30pm 4.6 1.3 0.4 74 1.6 S 7 9 4 5 1029.5 1029.7 0.0
02/07:00pm 5.7 2.7 0.7 70 1.9 W 6 9 3 5 1029.2 1029.4 0.0
02/06:30pm 6.5 3.2 0.4 65 2.4 SSE 7 9 4 5 1028.8 1029.0 0.0
02/06:00pm 6.8 2.8 0.7 65 2.4 S 11 13 6 7 1028.5 1028.7 0.0
02/05:30pm 8.3 4.0 1.2 61 2.9 S 13 17 7 9 1028.1 1028.4 0.0
02/05:00pm 9.1 5.1 2.9 65 2.6 SW 13 15 7 8 1028.0 1028.3 0.0
02/04:30pm 10.9 5.5 2.2 55 3.7 SSW 20 26 11 14 1027.8 1028.1 0.0
02/04:00pm 11.0 4.7 1.8 53 3.9 S 24 32 13 17 1027.7 1028.0 0.0
02/03:30pm 12.1 5.6 2.8 53 4.1 S 26 35 14 19 1027.5 1027.8 0.0
02/03:00pm 12.0 5.7 1.3 48 4.5 SSW 24 33 13 18 1027.3 1027.6 0.0
02/02:30pm 11.0 3.5 4.2 63 3.1 SSW 33 39 18 21 1027.1 1027.4 0.0
02/02:00pm 11.9 5.9 3.2 55 3.8 SW 24 33 13 18 1026.7 1027.0 0.0
02/01:30pm 11.5 4.2 2.5 54 3.9 SSW 30 44 16 24 1026.8 1027.1 0.0
02/01:00pm 12.0 4.9 3.8 57 3.7 SW 30 39 16 21 1026.6 1026.9 0.0
02/12:30pm 11.9 4.4 4.4 60 3.4 SSW 33 43 18 23 1026.7 1027.0 0.0
02/12:00pm 11.8 3.9 4.1 59 3.5 SSW 35 43 19 23 1026.7 1027.0 0.0
02/11:30am 11.8 3.9 4.3 60 3.4 SSW 35 46 19 25 1026.7 1027.0 0.0
02/11:00am 11.6 4.8 5.3 65 2.9 SSW 30 35 16 19 1026.6 1026.9 0.0
02/10:30am 10.9 4.9 7.0 77 1.9 SW 28 35 15 19 1026.3 1026.6 0.0
02/10:00am 10.3 5.0 7.0 80 1.6 SW 24 30 13 16 1026.1 1026.4 0.0
02/09:30am 9.8 5.6 7.6 86 1.1 WSW 19 26 10 14 1025.8 1026.1 0.0
02/09:00am 9.2 4.8 7.5 89 0.8 SW 20 26 11 14 1025.5 1025.8 1.4
02/08:30am 9.0 4.3 7.9 93 0.5 SW 22 30 12 16 1025.5 1025.8 1.4
02/08:00am 8.6 4.6 8.3 98 0.1 WSW 19 20 10 11 1025.2 1025.5 1.4
02/07:30am 9.4 5.5 9.3 99 0.0 SW 20 26 11 14 1024.6 1024.9 1.2
02/07:00am 9.5 5.8 9.5 100 0.0 WSW 19 28 10 15 1024.4 1024.7 1.2
02/06:30am 9.2 5.8 9.2 100 0.0 W 17 22 9 12 1023.7 1023.9 1.2
02/06:00am 9.0 5.0 9.0 100 0.0 W 20 24 11 13 1023.3 1023.5 1.2
02/05:30am 8.8 4.4 8.8 100 0.0 W 22 28 12 15 1023.1 1023.3 1.2
02/05:00am 8.5 3.6 8.5 100 0.0 W 24 32 13 17 1022.8 1023.0 1.0
02/04:30am 9.5 3.8 8.3 92 0.6 WNW 28 41 15 22 1022.3 1022.5 0.0
02/04:00am 9.3 3.0 7.4 88 0.9 WNW 30 43 16 23 1022.4 1022.6 0.0
02/03:30am 9.1 2.6 6.5 84 1.2 WNW 30 41 16 22 1022.7 1022.9 0.0
02/03:00am 8.6 3.1 5.9 83 1.2 WNW 24 35 13 19 1023.1 1023.3 0.0
02/02:30am 9.0 3.4 5.4 78 1.6 WNW 24 37 13 20 1022.9 1023.1 0.0
02/02:00am 8.8 3.2 5.2 78 1.6 WNW 24 33 13 18 1023.4 1023.6 0.0
02/01:30am 8.9 4.0 5.1 77 1.7 NW 20 30 11 16 1023.4 1023.6 0.0
02/01:00am 8.8 3.5 4.8 76 1.8 NW 22 32 12 17 1023.6 1023.8 0.0
02/12:30am 9.3 4.4 4.9 74 2.0 WNW 20 30 11 16 1024.0 1024.2 0.0
02/12:00am 9.8 4.9 5.0 72 2.2 WNW 20 30 11 16 1024.3 1024.5 0.0
 
Date/Time
EST
Temp
°C
App
Temp
°C
Dew
Point
Rel
Hum
%
Delta-T
°C
Wind Press
QNH
hPa
Press
MSL
hPa
Rain
since 9 am
mm
Dir
 
Spd
km/h
Gust
km/h
Spd
kts
Gust
kts
01/11:30pm 10.1 5.2 4.9 70 2.4 WNW 20 32 11 17 1024.7 1025.0 0.0
01/11:00pm 10.2 5.4 4.6 68 2.5 WNW 19 28 10 15 1024.9 1025.2 0.0
01/10:30pm 10.5 5.5 4.6 67 2.7 WNW 20 28 11 15 1025.0 1025.3 0.0
01/10:00pm 10.4 6.1 5.4 71 2.3 NW 17 24 9 13 1025.2 1025.5 0.0
01/09:30pm 10.5 6.3 5.5 71 2.3 WNW 17 26 9 14 1025.3 1025.6 0.0
01/09:00pm 10.2 6.0 5.6 73 2.1 NW 17 24 9 13 1025.2 1025.5 0.0
01/08:30pm 10.4 6.6 5.6 72 2.2 WNW 15 20 8 11 1025.1 1025.4 0.0
01/08:00pm 10.8 7.0 5.8 71 2.3 WNW 15 20 8 11 1024.9 1025.2 0.0
01/07:30pm 11.6 7.1 6.1 69 2.6 WNW 19 24 10 13 1025.1 1025.4 0.0
01/07:00pm 11.6 8.0 6.7 72 2.3 WNW 15 20 8 11 1025.0 1025.3 0.0
01/06:30pm 11.4 8.0 7.7 78 1.8 WNW 15 22 8 12 1025.1 1025.4 0.0
01/06:00pm 12.3 7.0 6.8 69 2.6 W 24 32 13 17 1025.2 1025.5 0.0
01/05:30pm 12.5 7.1 6.3 66 3.0 WNW 24 30 13 16 1025.0 1025.3 0.0
01/05:00pm 12.8 7.0 6.4 65 3.1 WNW 26 32 14 17 1024.9 1025.2 0.0
01/04:30pm 13.3 8.1 5.7 60 3.6 WNW 22 30 12 16 1024.6 1024.9 0.0
01/04:00pm 13.4 8.3 5.8 60 3.6 WNW 22 30 12 16 1024.8 1025.1 0.0
01/03:30pm 13.7 7.4 5.8 59 3.8 WNW 28 35 15 19 1025.0 1025.3 0.0
01/03:00pm 13.9 7.6 5.5 57 4.0 W 28 35 15 19 1025.2 1025.5 0.0
01/02:30pm 13.5 7.6 5.9 60 3.6 WNW 26 35 14 19 1025.4 1025.7 0.0
01/02:00pm 13.8 8.4 6.4 61 3.6 WNW 24 41 13 22 1025.8 1026.1 0.0
01/01:30pm 13.4 9.0 7.6 68 2.9 WNW 20 28 11 15 1026.3 1026.6 0.0
01/01:00pm 12.5 8.8 7.8 73 2.3 WNW 17 24 9 13 1027.0 1027.3 0.0
01/12:30pm 11.8 8.0 7.7 76 2.0 WNW 17 24 9 13 1027.5 1027.8 0.0
01/12:00pm 11.5 7.3 7.6 77 1.9 NW 19 26 10 14 1028.0 1028.3 0.0
01/11:30am 11.6 7.4 7.5 76 2.0 NW 19 26 10 14 1028.7 1028.9 0.0
01/11:00am 11.3 7.7 8.2 81 1.5 NNW 17 20 9 11 1028.7 1028.9 0.0
01/10:30am 10.4 6.9 8.8 90 0.8 NW 17 20 9 11 1028.9 1029.1 0.0
01/10:00am 8.8 6.8 8.7 99 0.0 NNW 9 15 5 8 1028.9 1029.1 0.0
01/09:30am 8.0 5.8 8.0 100 0.0 NNW 9 11 5 6 1029.1 1029.3 0.0
01/09:00am 7.3 5.0 7.3 100 0.0 NW 9 15 5 8 1029.3 1029.5 0.0
01/08:30am 7.1 5.3 7.1 100 0.0 NNW 6 11 3 6 1029.3 1029.5 0.0
01/08:00am 6.4 4.2 6.4 100 0.0 NNW 7 9 4 5 1029.2 1029.4 0.0
01/07:30am 6.1 3.9 6.0 99 0.0 NNW 7 9 4 5 1029.0 1029.2 0.0
01/07:00am 5.6 2.9 5.5 99 0.0 NNW 9 11 5 6 1028.7 1028.9 0.0
01/06:30am 5.8 3.5 5.5 98 0.1 NNW 7 9 4 5 1028.5 1028.7 0.0
01/06:00am 5.5 3.1 5.1 97 0.2 NNW 7 11 4 6 1028.5 1028.7 0.0
01/05:30am 5.2 2.3 4.6 96 0.3 NNW 9 11 5 6 1028.6 1028.8 0.0
01/05:00am 4.6 2.1 4.5 99 0.0 NNW 7 9 4 5 1028.5 1028.7 0.0
01/04:30am 4.5 1.9 4.4 99 0.0 NNW 7 7 4 4 1028.5 1028.7 0.0
01/04:00am 4.8 1.9 4.5 98 0.1 NW 9 9 5 5 1028.4 1028.6 0.0
01/03:30am 4.7 2.2 4.6 99 0.0 NW 7 9 4 5 1028.4 1028.6 0.0
01/03:00am 4.8 2.4 4.5 98 0.1 NW 6 7 3 4 1028.5 1028.7 0.0
01/02:30am 5.4 2.9 4.7 95 0.3 NW 7 9 4 5 1028.9 1029.1 0.0
01/02:00am 6.2 2.9 4.7 90 0.6 NW 11 13 6 7 1028.9 1029.1 0.0
01/01:30am 7.5 5.0 4.5 81 1.3 N 7 11 4 6 1028.9 1029.1 0.0
01/01:00am 7.9 5.5 5.4 84 1.1 N 7 9 4 5 1029.2 1029.4 0.0
01/12:30am 7.6 5.2 5.4 86 1.0 NNW 7 11 4 6 1029.5 1029.7 0.0
01/12:00am 7.5 5.2 5.5 87 0.9 NNW 7 11 4 6 1029.7 1029.9 0.0
 
Date/Time
EST
Temp
°C
App
Temp
°C
Dew
Point
Rel
Hum
%
Delta-T
°C
Wind Press
QNH
hPa
Press
MSL
hPa
Rain
since 9 am
mm
Dir
 
Spd
km/h
Gust
km/h
Spd
kts
Gust
kts
30/11:30pm 7.8 5.4 5.4 85 1.1 NNW 7 9 4 5 1030.0 1030.2 0.0
30/11:00pm 7.9 5.4 5.0 82 1.3 NNW 7 9 4 5 1029.9 1030.1 0.0
30/10:30pm 7.9 5.5 5.2 83 1.2 N 7 9 4 5 1030.1 1030.3 0.0
30/10:00pm 7.5 5.3 5.3 86 1.0 N 6 9 3 5 1030.0 1030.2 0.0
30/09:30pm 7.2 5.0 5.3 88 0.8 NW 6 9 3 5 1030.2 1030.4 0.0
30/09:00pm 6.7 5.6 5.2 90 0.7 CALM 0 0 0 0 1030.0 1030.2 0.0
30/08:30pm 6.9 4.4 4.7 86 1.0 W 7 9 4 5 1029.9 1030.1 0.0
30/08:00pm 8.1 6.8 4.1 76 1.7 CALM 0 6 0 3 1029.6 1029.8 0.0
30/07:30pm 9.2 7.9 4.0 70 2.3 CALM 0 0 0 0 1029.1 1029.3 0.0
30/07:00pm 9.4 6.9 4.0 69 2.4 SSW 6 7 3 4 1028.9 1029.1 0.0
30/06:30pm 10.4 8.0 4.3 66 2.7 SSW 6 7 3 4 1028.9 1029.1 0.0
30/06:00pm 10.6 8.0 4.1 64 2.9 SSW 7 9 4 5 1029.0 1029.2 0.0
30/05:30pm 10.8 8.2 4.3 64 2.9 SSW 7 9 4 5 1028.7 1028.9 0.0
30/05:00pm 11.4 8.3 3.7 59 3.4 SW 9 13 5 7 1028.8 1029.0 0.0
30/04:30pm 11.8 7.9 3.3 56 3.8 SSW 13 15 7 8 1028.6 1028.8 0.0
30/04:00pm 11.6 8.8 3.1 56 3.7 SE 7 11 4 6 1028.3 1028.5 0.0
30/03:30pm 11.8 9.1 3.6 57 3.7 SSW 7 13 4 7 1028.3 1028.5 0.0
30/03:00pm 11.4 8.2 3.2 57 3.6 S 9 13 5 7 1028.3 1028.5 0.0
30/02:30pm 11.3 8.1 3.3 58 3.5 S 9 15 5 8 1028.3 1028.5 0.0
30/02:00pm 11.1 7.9 3.2 58 3.5 ESE 9 13 5 7 1028.5 1028.7 0.0
30/01:30pm 10.7 8.1 4.0 63 3.0 SSE 7 11 4 6 1028.8 1029.0 0.0
30/01:00pm 9.7 7.5 5.3 74 2.0 SE 6 13 3 7 1029.0 1029.2 0.0
30/12:30pm 8.9 7.3 6.5 85 1.1 SW 4 7 2 4 1029.6 1029.8 0.0
30/12:00pm 8.5 6.4 6.5 87 0.9 SW 7 11 4 6 1030.0 1030.2 0.0
30/11:30am 8.1 5.4 7.2 94 0.4 WSW 11 13 6 7 1030.3 1030.5 0.0
30/11:00am 7.4 5.6 7.3 99 0.0 WSW 6 9 3 5 1030.3 1030.5 0.0
30/10:30am 6.6 5.8 6.6 100 0.0 CALM 0 0 0 0 1030.4 1030.6 0.0
30/10:00am 6.2 5.3 6.2 100 0.0 CALM 0 2 0 1 1030.4 1030.6 0.0
30/09:30am 5.7 4.7 5.7 100 0.0 CALM 0 0 0 0 1030.2 1030.4 0.0

Other Formats:

Comma delimited format used in spreadsheet applications
http://www.bom.gov.au/fwo/IDV60801/IDV60801.94827.axf

JavaScript Object Notation format (JSON) in row-major order
http://www.bom.gov.au/fwo/IDV60801/IDV60801.94827.json